sensor_id;sensor_type;location;lat;lon;timestamp;P1;durP1;ratioP1;P2;durP2;ratioP2
37945;SDS011;23769;52.478;13.448;2023-04-24T00:01:04;7.18;;;5.28;;
37945;SDS011;23769;52.478;13.448;2023-04-24T00:03:32;7.40;;;5.15;;
37945;SDS011;23769;52.478;13.448;2023-04-24T00:05:59;7.57;;;4.68;;
37945;SDS011;23769;52.478;13.448;2023-04-24T00:08:27;6.97;;;5.07;;
37945;SDS011;23769;52.478;13.448;2023-04-24T00:10:54;6.28;;;4.45;;
37945;SDS011;23769;52.478;13.448;2023-04-24T00:13:21;6.13;;;4.55;;
37945;SDS011;23769;52.478;13.448;2023-04-24T00:15:50;7.78;;;5.22;;
37945;SDS011;23769;52.478;13.448;2023-04-24T00:18:17;7.50;;;4.95;;
37945;SDS011;23769;52.478;13.448;2023-04-24T00:20:45;10.20;;;5.38;;
37945;SDS011;23769;52.478;13.448;2023-04-24T00:23:12;7.05;;;5.00;;
37945;SDS011;23769;52.478;13.448;2023-04-24T00:25:39;6.68;;;5.00;;
37945;SDS011;23769;52.478;13.448;2023-04-24T00:28:06;7.45;;;5.10;;
37945;SDS011;23769;52.478;13.448;2023-04-24T00:30:34;6.47;;;4.65;;
37945;SDS011;23769;52.478;13.448;2023-04-24T00:33:02;5.90;;;4.55;;
37945;SDS011;23769;52.478;13.448;2023-04-24T00:35:29;6.85;;;4.90;;
37945;SDS011;23769;52.478;13.448;2023-04-24T00:37:57;5.97;;;4.75;;
37945;SDS011;23769;52.478;13.448;2023-04-24T00:40:24;6.43;;;5.40;;
37945;SDS011;23769;52.478;13.448;2023-04-24T00:42:51;5.93;;;4.43;;
37945;SDS011;23769;52.478;13.448;2023-04-24T00:45:19;5.88;;;4.53;;
37945;SDS011;23769;52.478;13.448;2023-04-24T00:47:46;6.75;;;5.07;;
37945;SDS011;23769;52.478;13.448;2023-04-24T00:50:15;6.70;;;4.50;;
37945;SDS011;23769;52.478;13.448;2023-04-24T00:52:43;6.25;;;5.20;;
37945;SDS011;23769;52.478;13.448;2023-04-24T00:55:10;6.03;;;4.85;;
37945;SDS011;23769;52.478;13.448;2023-04-24T00:57:37;6.75;;;4.75;;
37945;SDS011;23769;52.478;13.448;2023-04-24T01:00:05;7.00;;;5.72;;
37945;SDS011;23769;52.478;13.448;2023-04-24T01:02:35;7.65;;;5.10;;
37945;SDS011;23769;52.478;13.448;2023-04-24T01:05:05;6.45;;;5.25;;
37945;SDS011;23769;52.478;13.448;2023-04-24T01:07:33;7.28;;;5.30;;
37945;SDS011;23769;52.478;13.448;2023-04-24T01:10:01;6.85;;;4.50;;
37945;SDS011;23769;52.478;13.448;2023-04-24T01:12:28;7.40;;;5.15;;
37945;SDS011;23769;52.478;13.448;2023-04-24T01:14:56;6.55;;;5.00;;
37945;SDS011;23769;52.478;13.448;2023-04-24T01:17:23;6.60;;;4.95;;
37945;SDS011;23769;52.478;13.448;2023-04-24T01:19:50;5.88;;;4.85;;
37945;SDS011;23769;52.478;13.448;2023-04-24T01:22:20;6.70;;;5.07;;
37945;SDS011;23769;52.478;13.448;2023-04-24T01:24:47;7.28;;;5.40;;
37945;SDS011;23769;52.478;13.448;2023-04-24T01:27:14;7.07;;;5.15;;
37945;SDS011;23769;52.478;13.448;2023-04-24T01:29:41;6.72;;;5.55;;
37945;SDS011;23769;52.478;13.448;2023-04-24T01:32:09;7.88;;;5.38;;
37945;SDS011;23769;52.478;13.448;2023-04-24T01:34:36;7.60;;;5.53;;
37945;SDS011;23769;52.478;13.448;2023-04-24T01:37:04;8.57;;;6.25;;
37945;SDS011;23769;52.478;13.448;2023-04-24T01:39:32;7.50;;;5.38;;
37945;SDS011;23769;52.478;13.448;2023-04-24T01:42:00;7.45;;;5.82;;
37945;SDS011;23769;52.478;13.448;2023-04-24T01:44:27;7.28;;;5.93;;
37945;SDS011;23769;52.478;13.448;2023-04-24T01:46:55;6.75;;;5.65;;
37945;SDS011;23769;52.478;13.448;2023-04-24T01:49:22;7.07;;;5.47;;
37945;SDS011;23769;52.478;13.448;2023-04-24T01:51:49;6.15;;;5.20;;
37945;SDS011;23769;52.478;13.448;2023-04-24T01:54:16;9.98;;;6.10;;
37945;SDS011;23769;52.478;13.448;2023-04-24T01:56:46;8.80;;;5.70;;
37945;SDS011;23769;52.478;13.448;2023-04-24T01:59:13;6.55;;;5.82;;
37945;SDS011;23769;52.478;13.448;2023-04-24T02:01:41;6.32;;;5.55;;
37945;SDS011;23769;52.478;13.448;2023-04-24T02:04:08;6.72;;;5.07;;
37945;SDS011;23769;52.478;13.448;2023-04-24T02:06:35;7.75;;;5.72;;
37945;SDS011;23769;52.478;13.448;2023-04-24T02:09:02;8.05;;;6.13;;
37945;SDS011;23769;52.478;13.448;2023-04-24T02:11:30;7.28;;;5.78;;
37945;SDS011;23769;52.478;13.448;2023-04-24T02:13:58;7.43;;;5.47;;
37945;SDS011;23769;52.478;13.448;2023-04-24T02:16:25;7.43;;;5.68;;
37945;SDS011;23769;52.478;13.448;2023-04-24T02:18:55;7.57;;;5.78;;
37945;SDS011;23769;52.478;13.448;2023-04-24T02:21:22;7.25;;;5.82;;
37945;SDS011;23769;52.478;13.448;2023-04-24T02:23:50;10.73;;;6.97;;
37945;SDS011;23769;52.478;13.448;2023-04-24T02:26:17;7.88;;;6.53;;
37945;SDS011;23769;52.478;13.448;2023-04-24T02:28:44;7.95;;;6.00;;
37945;SDS011;23769;52.478;13.448;2023-04-24T02:31:13;7.38;;;6.18;;
37945;SDS011;23769;52.478;13.448;2023-04-24T02:33:40;10.00;;;7.60;;
37945;SDS011;23769;52.478;13.448;2023-04-24T02:36:07;12.25;;;8.10;;
37945;SDS011;23769;52.478;13.448;2023-04-24T02:38:34;22.17;;;12.07;;
37945;SDS011;23769;52.478;13.448;2023-04-24T02:41:02;27.52;;;14.35;;
37945;SDS011;23769;52.478;13.448;2023-04-24T02:43:31;29.90;;;14.60;;
37945;SDS011;23769;52.478;13.448;2023-04-24T02:45:58;31.38;;;16.38;;
37945;SDS011;23769;52.478;13.448;2023-04-24T02:48:27;34.20;;;17.35;;
37945;SDS011;23769;52.478;13.448;2023-04-24T02:50:54;28.45;;;14.90;;
37945;SDS011;23769;52.478;13.448;2023-04-24T02:53:22;19.17;;;10.68;;
37945;SDS011;23769;52.478;13.448;2023-04-24T02:55:49;13.45;;;8.68;;
37945;SDS011;23769;52.478;13.448;2023-04-24T02:58:17;12.57;;;8.20;;
37945;SDS011;23769;52.478;13.448;2023-04-24T03:00:45;10.75;;;7.30;;
37945;SDS011;23769;52.478;13.448;2023-04-24T03:03:12;9.73;;;7.07;;
37945;SDS011;23769;52.478;13.448;2023-04-24T03:05:41;8.02;;;6.20;;
37945;SDS011;23769;52.478;13.448;2023-04-24T03:08:08;7.65;;;6.32;;
37945;SDS011;23769;52.478;13.448;2023-04-24T03:10:36;7.90;;;6.15;;
37945;SDS011;23769;52.478;13.448;2023-04-24T03:13:03;8.02;;;5.63;;
37945;SDS011;23769;52.478;13.448;2023-04-24T03:15:30;6.65;;;5.90;;
37945;SDS011;23769;52.478;13.448;2023-04-24T03:17:58;8.85;;;6.40;;
37945;SDS011;23769;52.478;13.448;2023-04-24T03:20:25;7.80;;;5.55;;
37945;SDS011;23769;52.478;13.448;2023-04-24T03:22:54;7.65;;;6.30;;
37945;SDS011;23769;52.478;13.448;2023-04-24T03:25:22;6.78;;;6.05;;
37945;SDS011;23769;52.478;13.448;2023-04-24T03:27:49;8.60;;;5.57;;
37945;SDS011;23769;52.478;13.448;2023-04-24T03:30:16;7.45;;;5.63;;
37945;SDS011;23769;52.478;13.448;2023-04-24T03:32:43;6.55;;;5.72;;
37945;SDS011;23769;52.478;13.448;2023-04-24T03:35:10;7.88;;;5.95;;
37945;SDS011;23769;52.478;13.448;2023-04-24T03:37:38;7.18;;;5.82;;
37945;SDS011;23769;52.478;13.448;2023-04-24T03:40:07;6.75;;;5.65;;
37945;SDS011;23769;52.478;13.448;2023-04-24T03:42:35;8.68;;;5.38;;
37945;SDS011;23769;52.478;13.448;2023-04-24T03:45:02;6.30;;;5.50;;
37945;SDS011;23769;52.478;13.448;2023-04-24T03:47:29;7.30;;;5.55;;
37945;SDS011;23769;52.478;13.448;2023-04-24T03:49:56;8.20;;;5.55;;
37945;SDS011;23769;52.478;13.448;2023-04-24T03:52:24;6.60;;;5.40;;
37945;SDS011;23769;52.478;13.448;2023-04-24T03:54:51;7.10;;;5.82;;
37945;SDS011;23769;52.478;13.448;2023-04-24T03:57:19;7.85;;;5.40;;
37945;SDS011;23769;52.478;13.448;2023-04-24T03:59:47;7.03;;;5.70;;
37945;SDS011;23769;52.478;13.448;2023-04-24T04:02:14;7.60;;;6.25;;
37945;SDS011;23769;52.478;13.448;2023-04-24T04:04:41;7.93;;;6.05;;
37945;SDS011;23769;52.478;13.448;2023-04-24T04:07:08;6.57;;;5.75;;
37945;SDS011;23769;52.478;13.448;2023-04-24T04:09:36;8.10;;;5.40;;
37945;SDS011;23769;52.478;13.448;2023-04-24T04:12:03;6.10;;;5.10;;
37945;SDS011;23769;52.478;13.448;2023-04-24T04:14:32;6.40;;;5.45;;
37945;SDS011;23769;52.478;13.448;2023-04-24T04:16:59;6.32;;;5.32;;
37945;SDS011;23769;52.478;13.448;2023-04-24T04:19:26;6.43;;;5.47;;
37945;SDS011;23769;52.478;13.448;2023-04-24T04:21:53;7.30;;;5.93;;
37945;SDS011;23769;52.478;13.448;2023-04-24T04:24:21;7.60;;;5.82;;
37945;SDS011;23769;52.478;13.448;2023-04-24T04:26:49;10.48;;;6.32;;
37945;SDS011;23769;52.478;13.448;2023-04-24T04:29:17;6.28;;;5.13;;
37945;SDS011;23769;52.478;13.448;2023-04-24T04:31:45;6.82;;;5.60;;
37945;SDS011;23769;52.478;13.448;2023-04-24T04:34:13;6.60;;;5.68;;
37945;SDS011;23769;52.478;13.448;2023-04-24T04:36:40;7.13;;;5.72;;
37945;SDS011;23769;52.478;13.448;2023-04-24T04:39:08;8.10;;;6.28;;
37945;SDS011;23769;52.478;13.448;2023-04-24T04:41:36;7.55;;;5.45;;
37945;SDS011;23769;52.478;13.448;2023-04-24T04:44:05;8.32;;;5.90;;
37945;SDS011;23769;52.478;13.448;2023-04-24T04:46:33;7.15;;;5.28;;
37945;SDS011;23769;52.478;13.448;2023-04-24T04:49:03;8.63;;;5.40;;
37945;SDS011;23769;52.478;13.448;2023-04-24T04:51:31;11.57;;;8.00;;
37945;SDS011;23769;52.478;13.448;2023-04-24T04:53:58;9.13;;;6.80;;
37945;SDS011;23769;52.478;13.448;2023-04-24T04:56:25;7.57;;;5.55;;
37945;SDS011;23769;52.478;13.448;2023-04-24T04:58:52;7.22;;;5.63;;
37945;SDS011;23769;52.478;13.448;2023-04-24T05:01:20;6.07;;;4.65;;
37945;SDS011;23769;52.478;13.448;2023-04-24T05:03:48;6.78;;;5.18;;
37945;SDS011;23769;52.478;13.448;2023-04-24T05:06:16;5.93;;;4.80;;
37945;SDS011;23769;52.478;13.448;2023-04-24T05:08:44;10.77;;;5.07;;
37945;SDS011;23769;52.478;13.448;2023-04-24T05:11:11;5.43;;;4.47;;
37945;SDS011;23769;52.478;13.448;2023-04-24T05:13:38;7.35;;;4.75;;
37945;SDS011;23769;52.478;13.448;2023-04-24T05:16:05;8.13;;;5.07;;
37945;SDS011;23769;52.478;13.448;2023-04-24T05:18:32;6.97;;;4.72;;
37945;SDS011;23769;52.478;13.448;2023-04-24T05:21:00;6.80;;;4.20;;
37945;SDS011;23769;52.478;13.448;2023-04-24T05:23:31;6.90;;;4.07;;
37945;SDS011;23769;52.478;13.448;2023-04-24T05:25:58;5.55;;;3.67;;
37945;SDS011;23769;52.478;13.448;2023-04-24T05:28:26;5.20;;;3.67;;
37945;SDS011;23769;52.478;13.448;2023-04-24T05:30:53;6.80;;;3.58;;
37945;SDS011;23769;52.478;13.448;2023-04-24T05:33:21;6.03;;;3.55;;
37945;SDS011;23769;52.478;13.448;2023-04-24T05:35:48;3.33;;;2.70;;
37945;SDS011;23769;52.478;13.448;2023-04-24T05:38:15;4.95;;;3.38;;
37945;SDS011;23769;52.478;13.448;2023-04-24T05:40:45;6.40;;;3.00;;
37945;SDS011;23769;52.478;13.448;2023-04-24T05:43:13;5.18;;;2.65;;
37945;SDS011;23769;52.478;13.448;2023-04-24T05:45:40;7.80;;;3.85;;
37945;SDS011;23769;52.478;13.448;2023-04-24T05:48:07;4.65;;;2.60;;
37945;SDS011;23769;52.478;13.448;2023-04-24T05:50:34;3.97;;;2.50;;
37945;SDS011;23769;52.478;13.448;2023-04-24T05:53:01;4.15;;;2.45;;
37945;SDS011;23769;52.478;13.448;2023-04-24T05:55:29;4.18;;;2.40;;
37945;SDS011;23769;52.478;13.448;2023-04-24T05:57:58;4.45;;;2.28;;
37945;SDS011;23769;52.478;13.448;2023-04-24T06:00:25;2.75;;;2.20;;
37945;SDS011;23769;52.478;13.448;2023-04-24T06:02:53;27.90;;;15.52;;
37945;SDS011;23769;52.478;13.448;2023-04-24T06:05:20;3.22;;;2.05;;
37945;SDS011;23769;52.478;13.448;2023-04-24T06:07:48;3.55;;;2.10;;
37945;SDS011;23769;52.478;13.448;2023-04-24T06:10:15;6.75;;;3.55;;
37945;SDS011;23769;52.478;13.448;2023-04-24T06:12:42;4.82;;;3.25;;
37945;SDS011;23769;52.478;13.448;2023-04-24T06:15:11;3.30;;;1.77;;
37945;SDS011;23769;52.478;13.448;2023-04-24T06:17:38;2.42;;;1.45;;
37945;SDS011;23769;52.478;13.448;2023-04-24T06:20:06;2.35;;;1.52;;
37945;SDS011;23769;52.478;13.448;2023-04-24T06:22:33;2.40;;;1.35;;
37945;SDS011;23769;52.478;13.448;2023-04-24T06:25:00;1.70;;;1.27;;
37945;SDS011;23769;52.478;13.448;2023-04-24T06:27:27;3.55;;;1.58;;
37945;SDS011;23769;52.478;13.448;2023-04-24T06:29:54;2.05;;;1.27;;
37945;SDS011;23769;52.478;13.448;2023-04-24T06:32:23;2.40;;;1.73;;
37945;SDS011;23769;52.478;13.448;2023-04-24T06:34:52;4.10;;;1.27;;
37945;SDS011;23769;52.478;13.448;2023-04-24T06:37:19;2.63;;;1.75;;
37945;SDS011;23769;52.478;13.448;2023-04-24T06:39:47;2.10;;;1.50;;
37945;SDS011;23769;52.478;13.448;2023-04-24T06:42:14;1.77;;;0.82;;
37945;SDS011;23769;52.478;13.448;2023-04-24T06:44:41;1.42;;;1.13;;
37945;SDS011;23769;52.478;13.448;2023-04-24T06:47:09;1.48;;;1.20;;
37945;SDS011;23769;52.478;13.448;2023-04-24T06:49:40;2.28;;;1.20;;
37945;SDS011;23769;52.478;13.448;2023-04-24T06:52:07;1.98;;;0.90;;
37945;SDS011;23769;52.478;13.448;2023-04-24T06:54:34;1.85;;;0.93;;
37945;SDS011;23769;52.478;13.448;2023-04-24T06:57:01;2.90;;;1.20;;
37945;SDS011;23769;52.478;13.448;2023-04-24T06:59:28;3.33;;;1.45;;
37945;SDS011;23769;52.478;13.448;2023-04-24T07:01:56;2.58;;;1.40;;
37945;SDS011;23769;52.478;13.448;2023-04-24T07:04:23;1.58;;;0.95;;
37945;SDS011;23769;52.478;13.448;2023-04-24T07:06:52;2.05;;;1.02;;
37945;SDS011;23769;52.478;13.448;2023-04-24T07:09:21;2.35;;;1.15;;
37945;SDS011;23769;52.478;13.448;2023-04-24T07:11:49;3.95;;;1.90;;
37945;SDS011;23769;52.478;13.448;2023-04-24T07:14:16;1.42;;;1.00;;
37945;SDS011;23769;52.478;13.448;2023-04-24T07:16:43;2.42;;;1.00;;
37945;SDS011;23769;52.478;13.448;2023-04-24T07:19:11;2.15;;;1.23;;
37945;SDS011;23769;52.478;13.448;2023-04-24T07:21:38;2.50;;;1.23;;
37945;SDS011;23769;52.478;13.448;2023-04-24T07:24:07;1.65;;;0.90;;
37945;SDS011;23769;52.478;13.448;2023-04-24T07:26:36;4.60;;;1.00;;
37945;SDS011;23769;52.478;13.448;2023-04-24T07:29:03;2.30;;;1.35;;
37945;SDS011;23769;52.478;13.448;2023-04-24T07:31:30;3.22;;;1.17;;
37945;SDS011;23769;52.478;13.448;2023-04-24T07:33:58;1.65;;;1.08;;
37945;SDS011;23769;52.478;13.448;2023-04-24T07:36:25;3.50;;;1.20;;
37945;SDS011;23769;52.478;13.448;2023-04-24T07:38:53;4.13;;;1.42;;
37945;SDS011;23769;52.478;13.448;2023-04-24T07:41:22;4.38;;;2.38;;
37945;SDS011;23769;52.478;13.448;2023-04-24T07:43:50;2.85;;;1.10;;
37945;SDS011;23769;52.478;13.448;2023-04-24T07:46:17;4.90;;;1.27;;
37945;SDS011;23769;52.478;13.448;2023-04-24T07:48:45;1.85;;;1.13;;
37945;SDS011;23769;52.478;13.448;2023-04-24T07:51:26;2.97;;;1.02;;
37945;SDS011;23769;52.478;13.448;2023-04-24T07:53:53;0.93;;;0.77;;
37945;SDS011;23769;52.478;13.448;2023-04-24T07:56:21;0.93;;;0.77;;
37945;SDS011;23769;52.478;13.448;2023-04-24T07:58:49;1.55;;;0.80;;
37945;SDS011;23769;52.478;13.448;2023-04-24T08:01:16;1.70;;;1.00;;
37945;SDS011;23769;52.478;13.448;2023-04-24T08:03:43;1.90;;;1.27;;
37945;SDS011;23769;52.478;13.448;2023-04-24T08:06:11;2.05;;;1.00;;
37945;SDS011;23769;52.478;13.448;2023-04-24T08:08:38;0.93;;;0.82;;
37945;SDS011;23769;52.478;13.448;2023-04-24T08:11:05;1.83;;;0.98;;
37945;SDS011;23769;52.478;13.448;2023-04-24T08:13:32;1.75;;;0.93;;
37945;SDS011;23769;52.478;13.448;2023-04-24T08:16:01;1.33;;;0.75;;
37945;SDS011;23769;52.478;13.448;2023-04-24T08:18:28;6.63;;;1.73;;
37945;SDS011;23769;52.478;13.448;2023-04-24T08:20:55;1.50;;;0.90;;
37945;SDS011;23769;52.478;13.448;2023-04-24T08:23:26;1.30;;;0.95;;
37945;SDS011;23769;52.478;13.448;2023-04-24T08:25:53;5.07;;;2.67;;
37945;SDS011;23769;52.478;13.448;2023-04-24T08:28:21;1.35;;;0.80;;
37945;SDS011;23769;52.478;13.448;2023-04-24T08:30:48;4.45;;;1.58;;
37945;SDS011;23769;52.478;13.448;2023-04-24T08:33:21;1.98;;;0.93;;
37945;SDS011;23769;52.478;13.448;2023-04-24T08:35:48;2.25;;;1.20;;
37945;SDS011;23769;52.478;13.448;2023-04-24T08:38:15;1.75;;;0.90;;
37945;SDS011;23769;52.478;13.448;2023-04-24T08:40:42;3.40;;;0.77;;
37945;SDS011;23769;52.478;13.448;2023-04-24T08:43:11;1.63;;;0.90;;
37945;SDS011;23769;52.478;13.448;2023-04-24T08:45:39;1.55;;;0.80;;
37945;SDS011;23769;52.478;13.448;2023-04-24T08:48:06;2.38;;;1.25;;
37945;SDS011;23769;52.478;13.448;2023-04-24T08:50:35;2.22;;;1.10;;
37945;SDS011;23769;52.478;13.448;2023-04-24T08:53:03;3.05;;;1.33;;
37945;SDS011;23769;52.478;13.448;2023-04-24T08:55:30;1.92;;;0.82;;
37945;SDS011;23769;52.478;13.448;2023-04-24T08:57:59;2.00;;;0.90;;
37945;SDS011;23769;52.478;13.448;2023-04-24T09:00:26;1.05;;;0.82;;
37945;SDS011;23769;52.478;13.448;2023-04-24T09:02:54;1.88;;;0.60;;
37945;SDS011;23769;52.478;13.448;2023-04-24T09:05:22;1.48;;;1.00;;
37945;SDS011;23769;52.478;13.448;2023-04-24T09:07:52;1.30;;;0.73;;
37945;SDS011;23769;52.478;13.448;2023-04-24T09:10:20;1.50;;;0.68;;
37945;SDS011;23769;52.478;13.448;2023-04-24T09:12:47;3.85;;;1.33;;
37945;SDS011;23769;52.478;13.448;2023-04-24T09:15:16;1.48;;;0.90;;
37945;SDS011;23769;52.478;13.448;2023-04-24T09:17:44;1.63;;;0.88;;
37945;SDS011;23769;52.478;13.448;2023-04-24T09:20:11;2.38;;;1.00;;
37945;SDS011;23769;52.478;13.448;2023-04-24T09:22:38;2.40;;;0.70;;
37945;SDS011;23769;52.478;13.448;2023-04-24T09:25:07;3.08;;;0.80;;
37945;SDS011;23769;52.478;13.448;2023-04-24T09:27:38;2.92;;;1.10;;
37945;SDS011;23769;52.478;13.448;2023-04-24T09:30:08;2.17;;;1.00;;
37945;SDS011;23769;52.478;13.448;2023-04-24T09:32:35;1.48;;;1.27;;
37945;SDS011;23769;52.478;13.448;2023-04-24T09:35:09;1.23;;;0.82;;
37945;SDS011;23769;52.478;13.448;2023-04-24T09:37:37;5.07;;;1.10;;
37945;SDS011;23769;52.478;13.448;2023-04-24T09:40:13;2.45;;;1.10;;
37945;SDS011;23769;52.478;13.448;2023-04-24T09:42:42;1.98;;;0.98;;
37945;SDS011;23769;52.478;13.448;2023-04-24T09:45:10;3.63;;;1.27;;
37945;SDS011;23769;52.478;13.448;2023-04-24T09:47:38;5.43;;;1.35;;
37945;SDS011;23769;52.478;13.448;2023-04-24T09:50:09;2.67;;;1.00;;
37945;SDS011;23769;52.478;13.448;2023-04-24T09:52:39;2.70;;;1.00;;
37945;SDS011;23769;52.478;13.448;2023-04-24T09:55:10;1.88;;;0.75;;
37945;SDS011;23769;52.478;13.448;2023-04-24T09:57:44;4.65;;;1.10;;
37945;SDS011;23769;52.478;13.448;2023-04-24T10:00:13;2.78;;;1.08;;
37945;SDS011;23769;52.478;13.448;2023-04-24T10:02:44;2.20;;;0.98;;
37945;SDS011;23769;52.478;13.448;2023-04-24T10:05:11;2.20;;;1.38;;
37945;SDS011;23769;52.478;13.448;2023-04-24T10:07:38;2.28;;;1.00;;
37945;SDS011;23769;52.478;13.448;2023-04-24T10:10:06;1.67;;;1.10;;
37945;SDS011;23769;52.478;13.448;2023-04-24T10:12:33;3.15;;;1.60;;
37945;SDS011;23769;52.478;13.448;2023-04-24T10:15:02;1.90;;;1.10;;
37945;SDS011;23769;52.478;13.448;2023-04-24T10:17:30;2.72;;;1.33;;
37945;SDS011;23769;52.478;13.448;2023-04-24T10:19:58;3.15;;;1.27;;
37945;SDS011;23769;52.478;13.448;2023-04-24T10:22:25;1.13;;;0.55;;
37945;SDS011;23769;52.478;13.448;2023-04-24T10:24:54;2.45;;;0.95;;
37945;SDS011;23769;52.478;13.448;2023-04-24T10:27:22;2.85;;;0.90;;
37945;SDS011;23769;52.478;13.448;2023-04-24T10:29:50;3.42;;;1.25;;
37945;SDS011;23769;52.478;13.448;2023-04-24T10:32:19;5.40;;;1.60;;
37945;SDS011;23769;52.478;13.448;2023-04-24T10:34:46;3.65;;;1.20;;
37945;SDS011;23769;52.478;13.448;2023-04-24T10:37:13;1.48;;;0.90;;
37945;SDS011;23769;52.478;13.448;2023-04-24T10:39:41;0.77;;;0.60;;
37945;SDS011;23769;52.478;13.448;2023-04-24T10:42:13;3.50;;;1.00;;
37945;SDS011;23769;52.478;13.448;2023-04-24T10:44:41;14.68;;;2.13;;
37945;SDS011;23769;52.478;13.448;2023-04-24T10:47:12;17.00;;;2.90;;
37945;SDS011;23769;52.478;13.448;2023-04-24T10:49:41;4.97;;;1.50;;
37945;SDS011;23769;52.478;13.448;2023-04-24T10:52:09;4.47;;;1.33;;
37945;SDS011;23769;52.478;13.448;2023-04-24T10:54:40;2.88;;;0.85;;
37945;SDS011;23769;52.478;13.448;2023-04-24T10:57:27;2.80;;;1.23;;
37945;SDS011;23769;52.478;13.448;2023-04-24T11:00:12;4.28;;;1.33;;
37945;SDS011;23769;52.478;13.448;2023-04-24T11:02:40;2.90;;;0.77;;
37945;SDS011;23769;52.478;13.448;2023-04-24T11:05:15;4.30;;;2.17;;
37945;SDS011;23769;52.478;13.448;2023-04-24T11:10:43;2.35;;;1.05;;
37945;SDS011;23769;52.478;13.448;2023-04-24T11:13:11;4.60;;;1.23;;
37945;SDS011;23769;52.478;13.448;2023-04-24T11:15:41;1.95;;;1.05;;
37945;SDS011;23769;52.478;13.448;2023-04-24T11:18:12;2.90;;;1.30;;
37945;SDS011;23769;52.478;13.448;2023-04-24T11:20:42;2.28;;;1.10;;
37945;SDS011;23769;52.478;13.448;2023-04-24T11:23:11;2.00;;;0.90;;
37945;SDS011;23769;52.478;13.448;2023-04-24T11:25:39;4.35;;;1.48;;
37945;SDS011;23769;52.478;13.448;2023-04-24T11:28:06;3.10;;;1.80;;
37945;SDS011;23769;52.478;13.448;2023-04-24T11:30:33;2.65;;;1.50;;
37945;SDS011;23769;52.478;13.448;2023-04-24T11:33:04;3.03;;;1.20;;
37945;SDS011;23769;52.478;13.448;2023-04-24T11:35:35;1.70;;;0.98;;
37945;SDS011;23769;52.478;13.448;2023-04-24T11:38:05;4.20;;;1.88;;
37945;SDS011;23769;52.478;13.448;2023-04-24T11:40:33;5.40;;;1.48;;
37945;SDS011;23769;52.478;13.448;2023-04-24T11:43:00;3.55;;;1.30;;
37945;SDS011;23769;52.478;13.448;2023-04-24T11:45:29;1.58;;;1.20;;
37945;SDS011;23769;52.478;13.448;2023-04-24T11:47:56;4.43;;;2.35;;
37945;SDS011;23769;52.478;13.448;2023-04-24T11:50:24;5.68;;;1.13;;
37945;SDS011;23769;52.478;13.448;2023-04-24T11:52:52;1.80;;;1.02;;
37945;SDS011;23769;52.478;13.448;2023-04-24T11:55:25;2.83;;;0.95;;
37945;SDS011;23769;52.478;13.448;2023-04-24T11:57:53;1.83;;;1.13;;
37945;SDS011;23769;52.478;13.448;2023-04-24T12:00:22;3.08;;;1.58;;
37945;SDS011;23769;52.478;13.448;2023-04-24T12:02:50;2.78;;;1.13;;
37945;SDS011;23769;52.478;13.448;2023-04-24T12:05:20;2.38;;;1.00;;
37945;SDS011;23769;52.478;13.448;2023-04-24T12:07:47;2.47;;;1.23;;
37945;SDS011;23769;52.478;13.448;2023-04-24T12:10:19;2.28;;;1.30;;
37945;SDS011;23769;52.478;13.448;2023-04-24T12:12:48;2.13;;;1.00;;
37945;SDS011;23769;52.478;13.448;2023-04-24T12:15:17;1.20;;;0.70;;
37945;SDS011;23769;52.478;13.448;2023-04-24T12:17:44;1.05;;;0.82;;
37945;SDS011;23769;52.478;13.448;2023-04-24T12:20:12;1.40;;;1.00;;
37945;SDS011;23769;52.478;13.448;2023-04-24T12:22:42;2.80;;;1.30;;
37945;SDS011;23769;52.478;13.448;2023-04-24T12:25:11;0.95;;;0.68;;
37945;SDS011;23769;52.478;13.448;2023-04-24T12:27:38;2.10;;;1.02;;
37945;SDS011;23769;52.478;13.448;2023-04-24T12:30:10;3.80;;;1.05;;
37945;SDS011;23769;52.478;13.448;2023-04-24T12:32:40;0.75;;;0.75;;
37945;SDS011;23769;52.478;13.448;2023-04-24T12:35:08;2.17;;;0.90;;
37945;SDS011;23769;52.478;13.448;2023-04-24T12:37:35;2.15;;;0.73;;
37945;SDS011;23769;52.478;13.448;2023-04-24T12:40:05;1.67;;;0.73;;
37945;SDS011;23769;52.478;13.448;2023-04-24T12:42:33;3.10;;;0.80;;
37945;SDS011;23769;52.478;13.448;2023-04-24T12:45:01;2.17;;;1.02;;
37945;SDS011;23769;52.478;13.448;2023-04-24T12:47:30;2.90;;;0.77;;
37945;SDS011;23769;52.478;13.448;2023-04-24T12:49:57;1.13;;;0.80;;
37945;SDS011;23769;52.478;13.448;2023-04-24T12:52:25;2.17;;;1.00;;
37945;SDS011;23769;52.478;13.448;2023-04-24T12:54:52;2.55;;;0.80;;
37945;SDS011;23769;52.478;13.448;2023-04-24T12:57:20;1.00;;;0.90;;
37945;SDS011;23769;52.478;13.448;2023-04-24T12:59:47;1.77;;;0.82;;
37945;SDS011;23769;52.478;13.448;2023-04-24T13:02:15;4.93;;;1.45;;
37945;SDS011;23769;52.478;13.448;2023-04-24T13:04:45;3.33;;;0.93;;
37945;SDS011;23769;52.478;13.448;2023-04-24T13:07:13;3.80;;;0.90;;
37945;SDS011;23769;52.478;13.448;2023-04-24T13:09:40;1.67;;;1.00;;
37945;SDS011;23769;52.478;13.448;2023-04-24T13:12:07;3.20;;;0.88;;
37945;SDS011;23769;52.478;13.448;2023-04-24T13:14:35;1.40;;;1.00;;
37945;SDS011;23769;52.478;13.448;2023-04-24T13:17:02;6.25;;;2.80;;
37945;SDS011;23769;52.478;13.448;2023-04-24T13:19:29;6.72;;;3.80;;
37945;SDS011;23769;52.478;13.448;2023-04-24T13:21:58;2.20;;;0.90;;
37945;SDS011;23769;52.478;13.448;2023-04-24T13:24:25;0.68;;;0.68;;
37945;SDS011;23769;52.478;13.448;2023-04-24T13:26:52;1.58;;;0.82;;
37945;SDS011;23769;52.478;13.448;2023-04-24T13:29:21;2.50;;;1.20;;
37945;SDS011;23769;52.478;13.448;2023-04-24T13:31:49;2.40;;;1.10;;
37945;SDS011;23769;52.478;13.448;2023-04-24T13:34:16;1.85;;;0.90;;
37945;SDS011;23769;52.478;13.448;2023-04-24T13:36:44;1.48;;;1.02;;
37945;SDS011;23769;52.478;13.448;2023-04-24T13:39:12;4.75;;;0.90;;
37945;SDS011;23769;52.478;13.448;2023-04-24T13:41:40;3.35;;;1.77;;
37945;SDS011;23769;52.478;13.448;2023-04-24T13:44:08;2.33;;;1.10;;
37945;SDS011;23769;52.478;13.448;2023-04-24T13:46:35;1.80;;;0.95;;
37945;SDS011;23769;52.478;13.448;2023-04-24T13:49:02;1.83;;;0.85;;
37945;SDS011;23769;52.478;13.448;2023-04-24T13:51:30;1.92;;;0.88;;
37945;SDS011;23769;52.478;13.448;2023-04-24T13:53:57;1.73;;;0.88;;
37945;SDS011;23769;52.478;13.448;2023-04-24T13:56:26;2.05;;;0.90;;
37945;SDS011;23769;52.478;13.448;2023-04-24T13:58:53;1.70;;;0.90;;
37945;SDS011;23769;52.478;13.448;2023-04-24T14:01:20;1.63;;;1.10;;
37945;SDS011;23769;52.478;13.448;2023-04-24T14:03:49;2.45;;;1.23;;
37945;SDS011;23769;52.478;13.448;2023-04-24T14:06:17;1.98;;;1.40;;
37945;SDS011;23769;52.478;13.448;2023-04-24T14:08:44;3.13;;;1.00;;
37945;SDS011;23769;52.478;13.448;2023-04-24T14:11:11;3.90;;;1.40;;
37945;SDS011;23769;52.478;13.448;2023-04-24T14:13:40;1.20;;;0.90;;
37945;SDS011;23769;52.478;13.448;2023-04-24T14:16:07;1.48;;;0.63;;
37945;SDS011;23769;52.478;13.448;2023-04-24T14:18:34;5.55;;;0.90;;
37945;SDS011;23769;52.478;13.448;2023-04-24T14:21:02;1.42;;;0.80;;
37945;SDS011;23769;52.478;13.448;2023-04-24T14:23:29;1.83;;;1.42;;
37945;SDS011;23769;52.478;13.448;2023-04-24T14:25:57;1.70;;;1.40;;
37945;SDS011;23769;52.478;13.448;2023-04-24T14:28:24;3.00;;;1.00;;
37945;SDS011;23769;52.478;13.448;2023-04-24T14:30:53;1.13;;;0.80;;
37945;SDS011;23769;52.478;13.448;2023-04-24T14:33:20;4.30;;;1.90;;
37945;SDS011;23769;52.478;13.448;2023-04-24T14:35:47;3.67;;;1.13;;
37945;SDS011;23769;52.478;13.448;2023-04-24T14:38:15;1.38;;;0.90;;
37945;SDS011;23769;52.478;13.448;2023-04-24T14:40:42;1.48;;;1.17;;